sensor_id;sensor_type;location;lat;lon;timestamp;temperature;humidity
6710;DHT22;3392;51.232;6.850;2023-08-06T07:33:06;23.90;49.20
6710;DHT22;3392;51.232;6.850;2023-08-06T07:34:11;24.20;46.50
6710;DHT22;3392;51.232;6.850;2023-08-06T07:35:13;24.20;47.70
6710;DHT22;3392;51.232;6.850;2023-08-06T07:36:14;24.30;48.90
6710;DHT22;3392;51.232;6.850;2023-08-06T07:37:16;24.60;43.00
6710;DHT22;3392;51.232;6.850;2023-08-06T07:38:20;24.40;43.00
6710;DHT22;3392;51.232;6.850;2023-08-06T07:39:26;24.50;40.80
6710;DHT22;3392;51.232;6.850;2023-08-06T07:40:30;25.30;39.10
6710;DHT22;3392;51.232;6.850;2023-08-06T07:41:29;24.70;37.50
6710;DHT22;3392;51.232;6.850;2023-08-06T07:42:32;24.60;37.10
6710;DHT22;3392;51.232;6.850;2023-08-06T07:43:45;24.70;37.20
6710;DHT22;3392;51.232;6.850;2023-08-06T07:44:45;24.60;34.80
6710;DHT22;3392;51.232;6.850;2023-08-06T07:45:54;24.60;34.50
6710;DHT22;3392;51.232;6.850;2023-08-06T07:47:05;24.60;35.20
6710;DHT22;3392;51.232;6.850;2023-08-06T07:48:06;24.60;34.80
6710;DHT22;3392;51.232;6.850;2023-08-06T07:49:18;24.60;35.30
6710;DHT22;3392;51.232;6.850;2023-08-06T07:50:20;24.60;35.30
6710;DHT22;3392;51.232;6.850;2023-08-06T07:51:20;24.60;35.00
6710;DHT22;3392;51.232;6.850;2023-08-06T07:52:19;24.70;34.80
6710;DHT22;3392;51.232;6.850;2023-08-06T07:55:06;24.70;33.90
6710;DHT22;3392;51.232;6.850;2023-08-06T07:56:08;24.70;34.20
6710;DHT22;3392;51.232;6.850;2023-08-06T07:57:08;24.70;34.40
6710;DHT22;3392;51.232;6.850;2023-08-06T07:58:09;24.70;34.60
6710;DHT22;3392;51.232;6.850;2023-08-06T07:59:08;24.70;35.70
6710;DHT22;3392;51.232;6.850;2023-08-06T08:00:11;24.70;36.10
6710;DHT22;3392;51.232;6.850;2023-08-06T08:01:17;24.70;35.20
6710;DHT22;3392;51.232;6.850;2023-08-06T08:02:18;24.70;35.00
6710;DHT22;3392;51.232;6.850;2023-08-06T08:03:19;24.70;34.70
6710;DHT22;3392;51.232;6.850;2023-08-06T08:04:19;24.70;34.90
6710;DHT22;3392;51.232;6.850;2023-08-06T08:05:22;25.70;35.70
6710;DHT22;3392;51.232;6.850;2023-08-06T08:06:26;24.70;34.10
6710;DHT22;3392;51.232;6.850;2023-08-06T08:07:29;24.80;34.00
6710;DHT22;3392;51.232;6.850;2023-08-06T08:08:29;24.80;34.00
6710;DHT22;3392;51.232;6.850;2023-08-06T08:11:09;24.80;34.20
6710;DHT22;3392;51.232;6.850;2023-08-06T08:12:17;24.80;34.00
6710;DHT22;3392;51.232;6.850;2023-08-06T08:15:22;24.80;35.20
6710;DHT22;3392;51.232;6.850;2023-08-06T08:16:22;24.80;34.80
6710;DHT22;3392;51.232;6.850;2023-08-06T08:17:23;24.80;34.60
6710;DHT22;3392;51.232;6.850;2023-08-06T08:18:25;24.90;34.70
6710;DHT22;3392;51.232;6.850;2023-08-06T08:19:25;24.90;34.20
6710;DHT22;3392;51.232;6.850;2023-08-06T08:20:26;24.90;34.10
6710;DHT22;3392;51.232;6.850;2023-08-06T08:21:30;24.80;34.00
6710;DHT22;3392;51.232;6.850;2023-08-06T08:23:03;24.80;34.00
6710;DHT22;3392;51.232;6.850;2023-08-06T08:24:05;24.80;34.80
6710;DHT22;3392;51.232;6.850;2023-08-06T08:25:05;24.80;35.80
6710;DHT22;3392;51.232;6.850;2023-08-06T08:26:06;24.80;36.20
6710;DHT22;3392;51.232;6.850;2023-08-06T08:27:05;24.80;36.40
6710;DHT22;3392;51.232;6.850;2023-08-06T08:28:08;24.80;36.90
6710;DHT22;3392;51.232;6.850;2023-08-06T08:29:10;24.90;37.30
6710;DHT22;3392;51.232;6.850;2023-08-06T08:30:18;24.90;36.70
6710;DHT22;3392;51.232;6.850;2023-08-06T08:31:18;25.10;34.60
6710;DHT22;3392;51.232;6.850;2023-08-06T08:32:24;25.00;35.10
6710;DHT22;3392;51.232;6.850;2023-08-06T08:33:25;25.20;34.30
6710;DHT22;3392;51.232;6.850;2023-08-06T08:34:25;25.30;33.60
6710;DHT22;3392;51.232;6.850;2023-08-06T08:35:26;25.30;34.20
6710;DHT22;3392;51.232;6.850;2023-08-06T08:36:26;25.40;34.40
6710;DHT22;3392;51.232;6.850;2023-08-06T08:37:26;25.50;34.50
6710;DHT22;3392;51.232;6.850;2023-08-06T08:38:36;25.50;34.50
6710;DHT22;3392;51.232;6.850;2023-08-06T08:39:35;25.60;34.30
6710;DHT22;3392;51.232;6.850;2023-08-06T08:40:41;25.70;34.30
6710;DHT22;3392;51.232;6.850;2023-08-06T08:41:47;25.70;33.50
6710;DHT22;3392;51.232;6.850;2023-08-06T08:42:59;27.60;34.90
6710;DHT22;3392;51.232;6.850;2023-08-06T08:43:59;25.90;33.80
6710;DHT22;3392;51.232;6.850;2023-08-06T08:44:59;25.90;33.30
6710;DHT22;3392;51.232;6.850;2023-08-06T08:46:02;25.90;33.40
6710;DHT22;3392;51.232;6.850;2023-08-06T08:47:08;27.60;34.70
6710;DHT22;3392;51.232;6.850;2023-08-06T08:48:11;26.00;34.20
6710;DHT22;3392;51.232;6.850;2023-08-06T08:49:14;26.10;34.40
6710;DHT22;3392;51.232;6.850;2023-08-06T08:50:14;26.10;34.60
6710;DHT22;3392;51.232;6.850;2023-08-06T08:53:06;26.10;34.90
6710;DHT22;3392;51.232;6.850;2023-08-06T08:54:09;26.20;34.50
6710;DHT22;3392;51.232;6.850;2023-08-06T08:55:14;26.20;33.00
6710;DHT22;3392;51.232;6.850;2023-08-06T08:56:15;26.30;32.50
6710;DHT22;3392;51.232;6.850;2023-08-06T08:57:14;26.30;31.70
6710;DHT22;3392;51.232;6.850;2023-08-06T08:58:17;26.40;30.50
6710;DHT22;3392;51.232;6.850;2023-08-06T08:59:18;26.40;29.60
6710;DHT22;3392;51.232;6.850;2023-08-06T09:00:20;26.40;29.40
6710;DHT22;3392;51.232;6.850;2023-08-06T09:01:21;26.40;29.60
6710;DHT22;3392;51.232;6.850;2023-08-06T09:02:23;26.30;29.40
6710;DHT22;3392;51.232;6.850;2023-08-06T09:03:48;26.30;29.50
6710;DHT22;3392;51.232;6.850;2023-08-06T09:09:17;26.60;36.20
6710;DHT22;3392;51.232;6.850;2023-08-06T09:10:25;26.70;36.00
6710;DHT22;3392;51.232;6.850;2023-08-06T09:11:27;26.80;35.30
6710;DHT22;3392;51.232;6.850;2023-08-06T09:12:27;26.80;32.70
6710;DHT22;3392;51.232;6.850;2023-08-06T09:13:31;26.80;30.80
6710;DHT22;3392;51.232;6.850;2023-08-06T09:14:40;26.80;29.70
6710;DHT22;3392;51.232;6.850;2023-08-06T09:15:41;26.80;29.30
6710;DHT22;3392;51.232;6.850;2023-08-06T09:18:13;26.80;28.80
6710;DHT22;3392;51.232;6.850;2023-08-06T09:19:24;26.80;28.50
6710;DHT22;3392;51.232;6.850;2023-08-06T09:20:23;26.70;28.60
6710;DHT22;3392;51.232;6.850;2023-08-06T09:21:37;26.70;28.80
6710;DHT22;3392;51.232;6.850;2023-08-06T09:22:36;26.70;28.60
6710;DHT22;3392;51.232;6.850;2023-08-06T09:23:37;26.70;28.60
6710;DHT22;3392;51.232;6.850;2023-08-06T09:24:41;26.70;28.60
6710;DHT22;3392;51.232;6.850;2023-08-06T09:25:47;26.70;28.60
6710;DHT22;3392;51.232;6.850;2023-08-06T09:26:49;26.70;28.60
6710;DHT22;3392;51.232;6.850;2023-08-06T09:27:55;26.60;28.60
6710;DHT22;3392;51.232;6.850;2023-08-06T09:29:00;26.60;28.50
6710;DHT22;3392;51.232;6.850;2023-08-06T09:30:01;26.60;28.50
6710;DHT22;3392;51.232;6.850;2023-08-06T09:31:10;26.60;28.50
6710;DHT22;3392;51.232;6.850;2023-08-06T09:32:09;26.50;28.40
6710;DHT22;3392;51.232;6.850;2023-08-06T09:33:10;26.50;28.30
6710;DHT22;3392;51.232;6.850;2023-08-06T09:34:11;26.50;28.30
6710;DHT22;3392;51.232;6.850;2023-08-06T09:35:16;26.50;28.30
6710;DHT22;3392;51.232;6.850;2023-08-06T09:36:24;26.50;28.30
6710;DHT22;3392;51.232;6.850;2023-08-06T09:37:27;26.40;28.20
6710;DHT22;3392;51.232;6.850;2023-08-06T09:38:38;26.40;28.20
6710;DHT22;3392;51.232;6.850;2023-08-06T09:39:40;26.40;28.20
6710;DHT22;3392;51.232;6.850;2023-08-06T09:40:43;26.40;28.20
6710;DHT22;3392;51.232;6.850;2023-08-06T09:41:44;26.30;28.10
6710;DHT22;3392;51.232;6.850;2023-08-06T09:42:45;26.20;28.00
6710;DHT22;3392;51.232;6.850;2023-08-06T09:43:46;26.20;28.00
6710;DHT22;3392;51.232;6.850;2023-08-06T09:44:45;26.20;28.00
6710;DHT22;3392;51.232;6.850;2023-08-06T09:45:46;26.20;28.00
6710;DHT22;3392;51.232;6.850;2023-08-06T09:46:49;26.20;27.90
6710;DHT22;3392;51.232;6.850;2023-08-06T09:47:56;26.10;27.90
6710;DHT22;3392;51.232;6.850;2023-08-06T09:48:56;26.10;27.90
6710;DHT22;3392;51.232;6.850;2023-08-06T09:49:56;26.00;27.90
6710;DHT22;3392;51.232;6.850;2023-08-06T09:50:57;26.00;28.00
6710;DHT22;3392;51.232;6.850;2023-08-06T09:51:57;26.00;28.00
6710;DHT22;3392;51.232;6.850;2023-08-06T09:53:00;26.00;28.00
6710;DHT22;3392;51.232;6.850;2023-08-06T09:54:03;25.90;28.00
6710;DHT22;3392;51.232;6.850;2023-08-06T09:55:09;25.90;28.00
6710;DHT22;3392;51.232;6.850;2023-08-06T09:56:10;25.90;28.10
6710;DHT22;3392;51.232;6.850;2023-08-06T09:57:15;25.80;28.00
6710;DHT22;3392;51.232;6.850;2023-08-06T09:58:24;25.80;28.00
6710;DHT22;3392;51.232;6.850;2023-08-06T09:59:25;25.80;28.00
6710;DHT22;3392;51.232;6.850;2023-08-06T10:00:24;25.70;28.10
6710;DHT22;3392;51.232;6.850;2023-08-06T10:01:34;25.70;28.10
6710;DHT22;3392;51.232;6.850;2023-08-06T10:02:33;25.70;28.20
6710;DHT22;3392;51.232;6.850;2023-08-06T10:03:34;25.60;28.30
6710;DHT22;3392;51.232;6.850;2023-08-06T10:04:34;25.60;28.30
6710;DHT22;3392;51.232;6.850;2023-08-06T10:05:40;25.60;28.40
6710;DHT22;3392;51.232;6.850;2023-08-06T10:06:51;25.60;28.40
6710;DHT22;3392;51.232;6.850;2023-08-06T10:07:57;25.60;28.50
6710;DHT22;3392;51.232;6.850;2023-08-06T10:09:01;25.50;28.60
6710;DHT22;3392;51.232;6.850;2023-08-06T10:10:10;25.50;28.60
6710;DHT22;3392;51.232;6.850;2023-08-06T10:11:10;25.40;28.70
6710;DHT22;3392;51.232;6.850;2023-08-06T10:12:11;25.40;28.70
6710;DHT22;3392;51.232;6.850;2023-08-06T10:13:20;25.40;28.80
6710;DHT22;3392;51.232;6.850;2023-08-06T10:14:25;25.40;28.70
6710;DHT22;3392;51.232;6.850;2023-08-06T10:15:26;25.40;28.90
6710;DHT22;3392;51.232;6.850;2023-08-06T10:16:32;25.40;29.00
6710;DHT22;3392;51.232;6.850;2023-08-06T10:17:35;25.40;29.00
6710;DHT22;3392;51.232;6.850;2023-08-06T10:18:39;25.30;29.00
6710;DHT22;3392;51.232;6.850;2023-08-06T10:19:38;25.30;29.00
6710;DHT22;3392;51.232;6.850;2023-08-06T10:20:39;25.30;29.00
6710;DHT22;3392;51.232;6.850;2023-08-06T10:21:38;25.30;29.10
6710;DHT22;3392;51.232;6.850;2023-08-06T10:22:42;25.30;29.20
6710;DHT22;3392;51.232;6.850;2023-08-06T10:23:44;25.20;29.10
6710;DHT22;3392;51.232;6.850;2023-08-06T10:26:17;25.20;29.10
6710;DHT22;3392;51.232;6.850;2023-08-06T10:27:20;25.20;29.30
6710;DHT22;3392;51.232;6.850;2023-08-06T10:28:20;25.10;29.30
6710;DHT22;3392;51.232;6.850;2023-08-06T10:29:36;25.10;29.30
6710;DHT22;3392;51.232;6.850;2023-08-06T10:30:42;25.10;29.80
6710;DHT22;3392;51.232;6.850;2023-08-06T10:31:58;25.10;29.40
6710;DHT22;3392;51.232;6.850;2023-08-06T10:33:00;25.10;29.40
6710;DHT22;3392;51.232;6.850;2023-08-06T10:34:06;25.00;29.50
6710;DHT22;3392;51.232;6.850;2023-08-06T10:35:09;25.00;29.50
6710;DHT22;3392;51.232;6.850;2023-08-06T10:36:32;25.00;29.50
6710;DHT22;3392;51.232;6.850;2023-08-06T10:37:35;25.00;29.70
6710;DHT22;3392;51.232;6.850;2023-08-06T10:38:43;25.00;29.70
6710;DHT22;3392;51.232;6.850;2023-08-06T10:39:50;24.90;29.70
6710;DHT22;3392;51.232;6.850;2023-08-06T10:41:02;25.00;29.70
6710;DHT22;3392;51.232;6.850;2023-08-06T10:42:05;25.00;29.70
6710;DHT22;3392;51.232;6.850;2023-08-06T10:43:05;25.00;29.70
6710;DHT22;3392;51.232;6.850;2023-08-06T10:44:10;25.00;29.70
6710;DHT22;3392;51.232;6.850;2023-08-06T10:45:16;25.00;29.70
6710;DHT22;3392;51.232;6.850;2023-08-06T10:46:27;25.00;29.70
6710;DHT22;3392;51.232;6.850;2023-08-06T10:47:26;24.90;30.30
6710;DHT22;3392;51.232;6.850;2023-08-06T10:48:33;24.90;30.00
6710;DHT22;3392;51.232;6.850;2023-08-06T10:49:36;24.90;30.10
6710;DHT22;3392;51.232;6.850;2023-08-06T10:50:36;24.80;30.30
6710;DHT22;3392;51.232;6.850;2023-08-06T10:51:40;24.80;30.40
6710;DHT22;3392;51.232;6.850;2023-08-06T10:52:41;24.80;30.50
6710;DHT22;3392;51.232;6.850;2023-08-06T10:53:43;24.80;30.60
6710;DHT22;3392;51.232;6.850;2023-08-06T10:54:46;24.80;30.90
6710;DHT22;3392;51.232;6.850;2023-08-06T10:55:45;24.80;31.50
6710;DHT22;3392;51.232;6.850;2023-08-06T10:56:45;24.90;31.90
6710;DHT22;3392;51.232;6.850;2023-08-06T10:57:49;25.00;32.00
6710;DHT22;3392;51.232;6.850;2023-08-06T10:58:50;25.00;32.10
6710;DHT22;3392;51.232;6.850;2023-08-06T10:59:53;25.10;32.00
6710;DHT22;3392;51.232;6.850;2023-08-06T11:00:56;25.20;31.60
6710;DHT22;3392;51.232;6.850;2023-08-06T11:01:55;25.20;31.30
6710;DHT22;3392;51.232;6.850;2023-08-06T11:02:57;25.30;31.30
6710;DHT22;3392;51.232;6.850;2023-08-06T11:04:01;25.40;31.40
6710;DHT22;3392;51.232;6.850;2023-08-06T11:05:06;25.40;31.10
6710;DHT22;3392;51.232;6.850;2023-08-06T11:06:07;25.40;29.90
6710;DHT22;3392;51.232;6.850;2023-08-06T11:07:07;25.40;30.00
6710;DHT22;3392;51.232;6.850;2023-08-06T11:08:07;25.40;29.50
6710;DHT22;3392;51.232;6.850;2023-08-06T11:09:08;25.40;29.50
6710;DHT22;3392;51.232;6.850;2023-08-06T11:10:11;25.30;29.60
6710;DHT22;3392;51.232;6.850;2023-08-06T11:11:15;25.30;29.90
6710;DHT22;3392;51.232;6.850;2023-08-06T11:12:19;25.20;30.00
6710;DHT22;3392;51.232;6.850;2023-08-06T11:13:20;25.20;30.20
6710;DHT22;3392;51.232;6.850;2023-08-06T11:14:21;25.20;30.10
6710;DHT22;3392;51.232;6.850;2023-08-06T11:15:21;25.10;30.40
6710;DHT22;3392;51.232;6.850;2023-08-06T11:16:24;25.10;31.60
6710;DHT22;3392;51.232;6.850;2023-08-06T11:17:24;25.10;32.80
6710;DHT22;3392;51.232;6.850;2023-08-06T11:18:28;25.20;32.80
6710;DHT22;3392;51.232;6.850;2023-08-06T11:19:32;25.20;32.50
6710;DHT22;3392;51.232;6.850;2023-08-06T11:20:47;25.20;32.80
6710;DHT22;3392;51.232;6.850;2023-08-06T11:27:27;25.10;30.20
6710;DHT22;3392;51.232;6.850;2023-08-06T11:28:36;25.00;29.80
6710;DHT22;3392;51.232;6.850;2023-08-06T11:29:37;25.00;29.70
6710;DHT22;3392;51.232;6.850;2023-08-06T11:30:44;24.90;29.70
6710;DHT22;3392;51.232;6.850;2023-08-06T11:31:43;24.90;29.70
6710;DHT22;3392;51.232;6.850;2023-08-06T11:32:45;24.80;29.60
6710;DHT22;3392;51.232;6.850;2023-08-06T11:33:46;24.80;29.50
6710;DHT22;3392;51.232;6.850;2023-08-06T11:36:28;24.70;29.30
6710;DHT22;3392;51.232;6.850;2023-08-06T11:36:50;24.60;29.20
6710;DHT22;3392;51.232;6.850;2023-08-06T11:37:51;24.50;29.20
6710;DHT22;3392;51.232;6.850;2023-08-06T11:39:36;24.40;29.00
6710;DHT22;3392;51.232;6.850;2023-08-06T11:40:44;24.40;28.90
6710;DHT22;3392;51.232;6.850;2023-08-06T11:41:43;24.30;29.00
6710;DHT22;3392;51.232;6.850;2023-08-06T11:42:47;24.30;28.90
6710;DHT22;3392;51.232;6.850;2023-08-06T11:43:51;24.30;28.80
6710;DHT22;3392;51.232;6.850;2023-08-06T11:44:57;24.20;28.80
6710;DHT22;3392;51.232;6.850;2023-08-06T11:46:02;24.20;28.70
6710;DHT22;3392;51.232;6.850;2023-08-06T11:47:13;24.10;28.70
6710;DHT22;3392;51.232;6.850;2023-08-06T11:48:13;24.10;28.70
6710;DHT22;3392;51.232;6.850;2023-08-06T11:49:14;24.00;28.70
6710;DHT22;3392;51.232;6.850;2023-08-06T11:50:23;24.00;28.70
6710;DHT22;3392;51.232;6.850;2023-08-06T11:51:28;24.00;28.60
6710;DHT22;3392;51.232;6.850;2023-08-06T11:52:31;23.90;30.60
6710;DHT22;3392;51.232;6.850;2023-08-06T11:53:41;23.90;33.50
6710;DHT22;3392;51.232;6.850;2023-08-06T11:54:42;23.90;32.30
6710;DHT22;3392;51.232;6.850;2023-08-06T11:55:41;24.00;31.90
6710;DHT22;3392;51.232;6.850;2023-08-06T11:56:46;24.00;36.70
6710;DHT22;3392;51.232;6.850;2023-08-06T11:58:17;23.80;32.00
6710;DHT22;3392;51.232;6.850;2023-08-06T11:59:38;23.70;32.00
6710;DHT22;3392;51.232;6.850;2023-08-06T12:00:59;23.40;32.80
6710;DHT22;3392;51.232;6.850;2023-08-06T14:16:50;21.30;37.50
6710;DHT22;3392;51.232;6.850;2023-08-06T14:17:57;21.30;38.00
6710;DHT22;3392;51.232;6.850;2023-08-06T14:18:58;21.40;38.10
6710;DHT22;3392;51.232;6.850;2023-08-06T14:20:00;21.40;37.50
6710;DHT22;3392;51.232;6.850;2023-08-06T14:21:00;21.40;37.50
6710;DHT22;3392;51.232;6.850;2023-08-06T14:22:02;21.40;37.40
6710;DHT22;3392;51.232;6.850;2023-08-06T14:23:02;21.40;37.30
6710;DHT22;3392;51.232;6.850;2023-08-06T14:24:03;21.40;37.20
6710;DHT22;3392;51.232;6.850;2023-08-06T14:25:04;21.40;37.30
6710;DHT22;3392;51.232;6.850;2023-08-06T14:26:06;21.40;37.40
6710;DHT22;3392;51.232;6.850;2023-08-06T14:27:07;21.40;37.70
6710;DHT22;3392;51.232;6.850;2023-08-06T14:28:06;21.40;38.30
6710;DHT22;3392;51.232;6.850;2023-08-06T14:29:07;21.40;38.60
6710;DHT22;3392;51.232;6.850;2023-08-06T14:30:08;21.40;38.70
6710;DHT22;3392;51.232;6.850;2023-08-06T14:31:08;21.40;39.00
6710;DHT22;3392;51.232;6.850;2023-08-06T14:32:10;21.40;38.90
6710;DHT22;3392;51.232;6.850;2023-08-06T14:33:10;21.40;38.60
6710;DHT22;3392;51.232;6.850;2023-08-06T14:34:11;21.40;38.40
6710;DHT22;3392;51.232;6.850;2023-08-06T14:35:13;21.40;38.50
6710;DHT22;3392;51.232;6.850;2023-08-06T14:36:20;23.40;99.90
6710;DHT22;3392;51.232;6.850;2023-08-06T14:37:42;22.30;99.90
6710;DHT22;3392;51.232;6.850;2023-08-06T14:38:55;22.30;89.70
6710;DHT22;3392;51.232;6.850;2023-08-06T14:42:18;22.40;47.00
6710;DHT22;3392;51.232;6.850;2023-08-06T14:43:24;22.50;41.70
6710;DHT22;3392;51.232;6.850;2023-08-06T14:44:41;22.50;42.00
6710;DHT22;3392;51.232;6.850;2023-08-06T14:48:05;22.50;40.50
6710;DHT22;3392;51.232;6.850;2023-08-06T14:49:06;22.50;41.10
6710;DHT22;3392;51.232;6.850;2023-08-06T14:50:11;22.50;41.10
6710;DHT22;3392;51.232;6.850;2023-08-06T14:51:12;22.50;41.90
6710;DHT22;3392;51.232;6.850;2023-08-06T14:52:12;22.50;42.10
6710;DHT22;3392;51.232;6.850;2023-08-06T14:53:15;22.50;42.00
6710;DHT22;3392;51.232;6.850;2023-08-06T14:54:20;22.50;41.10
6710;DHT22;3392;51.232;6.850;2023-08-06T14:55:28;22.50;41.10
6710;DHT22;3392;51.232;6.850;2023-08-06T14:56:27;22.50;41.10
6710;DHT22;3392;51.232;6.850;2023-08-06T14:57:39;22.60;40.80
6710;DHT22;3392;51.232;6.850;2023-08-06T14:58:47;22.60;40.50
6710;DHT22;3392;51.232;6.850;2023-08-06T14:59:53;22.60;40.30
6710;DHT22;3392;51.232;6.850;2023-08-06T15:01:08;22.60;40.10
6710;DHT22;3392;51.232;6.850;2023-08-06T15:02:22;22.60;40.00
6710;DHT22;3392;51.232;6.850;2023-08-06T15:03:25;22.60;39.70
6710;DHT22;3392;51.232;6.850;2023-08-06T15:05:46;22.60;39.50
6710;DHT22;3392;51.232;6.850;2023-08-06T15:06:47;22.50;39.20
6710;DHT22;3392;51.232;6.850;2023-08-06T15:07:46;22.60;39.00
6710;DHT22;3392;51.232;6.850;2023-08-06T15:08:54;22.50;38.50
6710;DHT22;3392;51.232;6.850;2023-08-06T15:09:58;22.50;38.20
6710;DHT22;3392;51.232;6.850;2023-08-06T15:10:59;22.50;38.30
6710;DHT22;3392;51.232;6.850;2023-08-06T15:12:00;22.50;38.20
6710;DHT22;3392;51.232;6.850;2023-08-06T15:13:03;22.50;38.20
6710;DHT22;3392;51.232;6.850;2023-08-06T15:14:06;22.50;38.30
6710;DHT22;3392;51.232;6.850;2023-08-06T15:15:10;22.50;38.10
6710;DHT22;3392;51.232;6.850;2023-08-06T15:16:11;22.50;37.80
6710;DHT22;3392;51.232;6.850;2023-08-06T15:17:16;22.50;37.80
6710;DHT22;3392;51.232;6.850;2023-08-06T15:18:18;22.50;37.70
6710;DHT22;3392;51.232;6.850;2023-08-06T15:19:23;22.50;37.10
6710;DHT22;3392;51.232;6.850;2023-08-06T15:20:26;22.50;37.00
6710;DHT22;3392;51.232;6.850;2023-08-06T15:21:33;22.40;37.00
6710;DHT22;3392;51.232;6.850;2023-08-06T15:22:35;22.50;36.90
6710;DHT22;3392;51.232;6.850;2023-08-06T15:23:50;22.50;36.70
6710;DHT22;3392;51.232;6.850;2023-08-06T15:24:54;22.50;36.60
6710;DHT22;3392;51.232;6.850;2023-08-06T15:25:56;22.50;36.60
6710;DHT22;3392;51.232;6.850;2023-08-06T15:26:56;22.50;36.60
6710;DHT22;3392;51.232;6.850;2023-08-06T15:27:56;22.50;36.60
6710;DHT22;3392;51.232;6.850;2023-08-06T15:28:57;22.50;36.60
6710;DHT22;3392;51.232;6.850;2023-08-06T15:30:01;22.40;36.50
6710;DHT22;3392;51.232;6.850;2023-08-06T15:31:09;22.40;36.60
6710;DHT22;3392;51.232;6.850;2023-08-06T15:32:09;22.40;36.50
6710;DHT22;3392;51.232;6.850;2023-08-06T15:33:10;22.40;36.50
6710;DHT22;3392;51.232;6.850;2023-08-06T15:34:09;22.40;36.50
6710;DHT22;3392;51.232;6.850;2023-08-06T15:35:15;22.40;36.50
6710;DHT22;3392;51.232;6.850;2023-08-06T15:36:17;22.40;36.60
6710;DHT22;3392;51.232;6.850;2023-08-06T15:37:18;22.40;36.50
6710;DHT22;3392;51.232;6.850;2023-08-06T15:38:18;22.40;36.50
6710;DHT22;3392;51.232;6.850;2023-08-06T15:39:21;22.30;36.50
6710;DHT22;3392;51.232;6.850;2023-08-06T15:40:23;22.30;36.60
6710;DHT22;3392;51.232;6.850;2023-08-06T15:41:28;22.30;36.90
6710;DHT22;3392;51.232;6.850;2023-08-06T15:42:27;22.30;37.00
6710;DHT22;3392;51.232;6.850;2023-08-06T15:43:28;22.30;37.00
6710;DHT22;3392;51.232;6.850;2023-08-06T15:44:30;22.30;37.00
6710;DHT22;3392;51.232;6.850;2023-08-06T15:45:33;22.30;36.70
6710;DHT22;3392;51.232;6.850;2023-08-06T15:46:32;22.30;36.70
6710;DHT22;3392;51.232;6.850;2023-08-06T15:47:35;22.30;36.40
6710;DHT22;3392;51.232;6.850;2023-08-06T15:48:39;22.30;36.40
6710;DHT22;3392;51.232;6.850;2023-08-06T15:49:40;22.30;36.40
6710;DHT22;3392;51.232;6.850;2023-08-06T15:50:41;22.30;36.80
6710;DHT22;3392;51.232;6.850;2023-08-06T15:51:41;22.30;36.90
6710;DHT22;3392;51.232;6.850;2023-08-06T15:52:41;22.20;36.80
6710;DHT22;3392;51.232;6.850;2023-08-06T15:53:41;22.20;36.90
6710;DHT22;3392;51.232;6.850;2023-08-06T15:54:41;22.20;37.20
6710;DHT22;3392;51.232;6.850;2023-08-06T15:55:41;22.20;37.20
6710;DHT22;3392;51.232;6.850;2023-08-06T15:56:40;22.20;37.20
6710;DHT22;3392;51.232;6.850;2023-08-06T15:57:41;22.30;37.30
6710;DHT22;3392;51.232;6.850;2023-08-06T15:58:41;22.30;37.30
6710;DHT22;3392;51.232;6.850;2023-08-06T15:59:45;22.30;37.30
6710;DHT22;3392;51.232;6.850;2023-08-06T16:00:48;22.30;37.70
6710;DHT22;3392;51.232;6.850;2023-08-06T16:01:48;22.30;37.30
6710;DHT22;3392;51.232;6.850;2023-08-06T16:02:48;22.30;37.20
6710;DHT22;3392;51.232;6.850;2023-08-06T16:03:52;22.30;37.30
6710;DHT22;3392;51.232;6.850;2023-08-06T16:04:52;22.30;37.30
6710;DHT22;3392;51.232;6.850;2023-08-06T16:05:55;22.30;37.30
6710;DHT22;3392;51.232;6.850;2023-08-06T16:06:55;22.30;37.40
6710;DHT22;3392;51.232;6.850;2023-08-06T16:07:55;22.30;37.30
6710;DHT22;3392;51.232;6.850;2023-08-06T16:08:55;22.30;37.40
6710;DHT22;3392;51.232;6.850;2023-08-06T16:09:55;22.30;37.40
6710;DHT22;3392;51.232;6.850;2023-08-06T16:10:59;22.20;37.30
6710;DHT22;3392;51.232;6.850;2023-08-06T16:11:58;22.20;37.40
6710;DHT22;3392;51.232;6.850;2023-08-06T16:12:58;22.30;37.40
6710;DHT22;3392;51.232;6.850;2023-08-06T16:13:59;22.20;37.20
6710;DHT22;3392;51.232;6.850;2023-08-06T16:15:00;22.30;37.30
6710;DHT22;3392;51.232;6.850;2023-08-06T16:15:59;22.30;37.20
6710;DHT22;3392;51.232;6.850;2023-08-06T16:16:59;22.30;37.30
6710;DHT22;3392;51.232;6.850;2023-08-06T16:17:59;22.30;37.30
6710;DHT22;3392;51.232;6.850;2023-08-06T16:19:00;22.30;37.30
6710;DHT22;3392;51.232;6.850;2023-08-06T16:20:00;22.20;37.20
6710;DHT22;3392;51.232;6.850;2023-08-06T16:21:02;22.20;37.00
6710;DHT22;3392;51.232;6.850;2023-08-06T16:22:02;22.20;37.00
6710;DHT22;3392;51.232;6.850;2023-08-06T16:23:02;22.30;37.00
6710;DHT22;3392;51.232;6.850;2023-08-06T16:24:02;22.30;36.90
6710;DHT22;3392;51.232;6.850;2023-08-06T16:25:04;22.30;36.90
6710;DHT22;3392;51.232;6.850;2023-08-06T16:26:03;22.30;37.00
6710;DHT22;3392;51.232;6.850;2023-08-06T16:27:05;22.30;36.90
6710;DHT22;3392;51.232;6.850;2023-08-06T16:28:04;22.30;36.90
6710;DHT22;3392;51.232;6.850;2023-08-06T16:29:04;22.30;36.80
6710;DHT22;3392;51.232;6.850;2023-08-06T16:30:05;22.30;36.70
6710;DHT22;3392;51.232;6.850;2023-08-06T16:31:05;22.30;37.00
6710;DHT22;3392;51.232;6.850;2023-08-06T16:32:07;22.30;36.90
6710;DHT22;3392;51.232;6.850;2023-08-06T16:33:09;22.20;36.80
6710;DHT22;3392;51.232;6.850;2023-08-06T16:34:10;22.20;36.80
6710;DHT22;3392;51.232;6.850;2023-08-06T16:35:10;22.20;36.70
6710;DHT22;3392;51.232;6.850;2023-08-06T16:36:12;22.20;36.80
6710;DHT22;3392;51.232;6.850;2023-08-06T16:37:14;22.30;36.70
6710;DHT22;3392;51.232;6.850;2023-08-06T16:38:14;22.20;36.70
6710;DHT22;3392;51.232;6.850;2023-08-06T16:39:18;22.30;37.30
6710;DHT22;3392;51.232;6.850;2023-08-06T16:40:20;22.20;37.30
6710;DHT22;3392;51.232;6.850;2023-08-06T16:41:19;22.20;37.30
6710;DHT22;3392;51.232;6.850;2023-08-06T16:42:20;22.20;37.00
6710;DHT22;3392;51.232;6.850;2023-08-06T16:43:19;22.20;37.00
6710;DHT22;3392;51.232;6.850;2023-08-06T16:44:20;22.20;36.80
6710;DHT22;3392;51.232;6.850;2023-08-06T16:45:20;22.20;37.10
6710;DHT22;3392;51.232;6.850;2023-08-06T16:46:24;22.20;37.10
6710;DHT22;3392;51.232;6.850;2023-08-06T16:47:24;22.20;37.50
6710;DHT22;3392;51.232;6.850;2023-08-06T20:00:00;22.60;36.10
6710;DHT22;3392;51.232;6.850;2023-08-06T20:01:03;22.40;37.50
6710;DHT22;3392;51.232;6.850;2023-08-06T20:02:03;22.50;38.90
6710;DHT22;3392;51.232;6.850;2023-08-06T20:03:03;23.00;42.20
6710;DHT22;3392;51.232;6.850;2023-08-06T20:05:07;23.10;36.50
6710;DHT22;3392;51.232;6.850;2023-08-06T20:07:07;25.90;32.10
6710;DHT22;3392;51.232;6.850;2023-08-06T20:08:06;27.60;26.70
6710;DHT22;3392;51.232;6.850;2023-08-06T20:09:06;29.10;25.80
6710;DHT22;3392;51.232;6.850;2023-08-06T20:10:06;30.10;23.60
6710;DHT22;3392;51.232;6.850;2023-08-06T20:12:07;31.30;21.50
6710;DHT22;3392;51.232;6.850;2023-08-06T20:13:07;31.20;20.80
6710;DHT22;3392;51.232;6.850;2023-08-06T20:14:07;32.30;20.70
6710;DHT22;3392;51.232;6.850;2023-08-06T20:16:10;32.80;18.70
6710;DHT22;3392;51.232;6.850;2023-08-06T20:20:13;33.90;27.30
6710;DHT22;3392;51.232;6.850;2023-08-06T20:24:15;33.60;16.60
6710;DHT22;3392;51.232;6.850;2023-08-06T20:26:15;33.80;24.70
6710;DHT22;3392;51.232;6.850;2023-08-06T20:27:15;33.20;23.20
6710;DHT22;3392;51.232;6.850;2023-08-06T20:28:15;32.30;23.00
6710;DHT22;3392;51.232;6.850;2023-08-06T20:29:15;31.00;18.60
6710;DHT22;3392;51.232;6.850;2023-08-06T20:31:19;29.40;21.10